Time;durP1;ratioP1;P1;durP2;ratioP2;P2;SDS_P1;SDS_P2;PMS_P1;PMS_P2;Temp;Humidity;BMP_temperature;BMP_pressure;BME280_temperature;BME280_humidity;BME280_pressure;Samples;Min_cycle;Max_cycle;Signal;HPM_P1;HPM_P2
2022/03/11 00:00:06;;;;;;;16.87;3.70;;;;;;;15.19;nan;101497.81;4881696;29;20453;-93
2022/03/11 00:02:36;;;;;;;15.70;3.00;;;;;;;15.23;nan;101497.38;4885126;29;20789;-92
2022/03/11 00:05:18;;;;;;;16.53;2.90;;;;;;;15.26;nan;101488.69;4885457;29;20430;-91
2022/03/11 00:07:46;;;;;;;31.57;4.10;;;;;;;15.24;nan;101494.41;4869661;29;20493;-95
2022/03/11 00:10:14;;;;;;;20.27;4.40;;;;;;;15.23;nan;101500.97;4879035;29;20467;-91
2022/03/11 00:12:50;;;;;;;22.60;3.60;;;;;;;15.23;nan;101503.72;4884867;29;20509;-94
2022/03/11 00:15:18;;;;;;;21.37;3.27;;;;;;;15.17;nan;101485.28;4884196;29;20464;-90
2022/03/11 00:17:54;;;;;;;21.83;3.27;;;;;;;15.25;nan;101500.78;4884809;29;20461;-92
2022/03/11 00:20:31;;;;;;;25.80;2.83;;;;;;;15.25;nan;101489.75;4899565;29;20461;-94
2022/03/11 00:23:07;;;;;;;14.47;2.73;;;;;;;15.26;nan;101488.69;4885009;29;20441;-95
2022/03/11 00:25:41;;;;;;;18.23;3.40;;;;;;;15.14;nan;101463.66;4882420;29;20461;-93
2022/03/11 00:28:09;;;;;;;14.17;2.97;;;;;;;15.17;nan;101450.34;4869164;29;20491;-91
2022/03/11 00:30:41;;;;;;;24.23;3.30;;;;;;;15.22;nan;101457.97;4865898;29;20458;-94
2022/03/11 00:33:24;;;;;;;24.30;2.50;;;;;;;15.20;nan;101469.19;4881163;29;20522;-92
2022/03/11 00:35:51;;;;;;;14.13;2.20;;;;;;;15.18;nan;101470.47;4874294;29;20450;-91
2022/03/11 00:38:20;;;;;;;19.63;3.33;;;;;;;15.14;nan;101470.03;4884309;29;20472;-96
2022/03/11 00:40:59;;;;;;;14.03;2.30;;;;;;;15.16;nan;101481.69;4899512;29;20453;-95
2022/03/11 00:43:29;;;;;;;17.20;2.40;;;;;;;15.16;nan;101478.94;4915324;29;20450;-94
2022/03/11 00:45:59;;;;;;;17.03;2.80;;;;;;;15.10;nan;101482.50;4882996;29;20465;-93
2022/03/11 00:48:33;;;;;;;23.67;3.60;;;;;;;15.13;nan;101475.75;4884819;29;20485;-94
2022/03/11 00:51:03;;;;;;;20.60;3.47;;;;;;;15.19;nan;101486.78;4839396;29;20455;-93
2022/03/11 00:53:31;;;;;;;18.67;3.23;;;;;;;15.19;nan;101492.28;4812729;29;20513;-91
2022/03/11 00:56:00;;;;;;;22.50;4.73;;;;;;;15.17;nan;101488.91;4812775;29;20472;-92
2022/03/11 00:58:28;;;;;;;24.47;4.10;;;;;;;15.19;nan;101480.44;4828491;29;20500;-92
2022/03/11 01:00:57;;;;;;;22.73;4.70;;;;;;;15.18;nan;101468.56;4804862;29;20463;-91
2022/03/11 01:03:31;;;;;;;25.27;2.87;;;;;;;15.25;nan;101476.81;4812378;29;20471;-92
2022/03/11 01:06:00;;;;;;;19.50;3.60;;;;;;;15.25;nan;101475.97;4788618;30;20498;-93
2022/03/11 01:08:28;;;;;;;18.80;3.30;;;;;;;15.27;nan;101476.63;4810235;29;20496;-93
2022/03/11 01:10:55;;;;;;;17.17;2.77;;;;;;;15.18;nan;101460.31;4823427;29;20453;-92
2022/03/11 01:13:25;;;;;;;21.43;4.07;;;;;;;15.28;nan;101459.91;4824238;29;20450;-92
2022/03/11 01:15:53;;;;;;;25.60;3.57;;;;;;;15.21;nan;101445.25;4824158;29;20849;-94
2022/03/11 01:18:31;;;;;;;21.93;3.07;;;;;;;15.31;nan;101450.38;4813915;29;20453;-91
2022/03/11 01:21:06;;;;;;;18.30;3.90;;;;;;;15.28;nan;101439.78;4821147;29;20453;-91
2022/03/11 01:23:37;;;;;;;21.57;2.73;;;;;;;15.29;nan;101449.72;4841014;29;20458;-91
2022/03/11 01:26:05;;;;;;;17.47;3.00;;;;;;;15.27;nan;101444.44;4879844;29;20454;-93
2022/03/11 01:28:34;;;;;;;22.90;3.30;;;;;;;15.27;nan;101440.81;4880376;29;20837;-93
2022/03/11 01:31:01;;;;;;;16.17;2.50;;;;;;;15.31;nan;101444.88;4894114;29;20513;-91
2022/03/11 01:33:29;;;;;;;16.07;2.23;;;;;;;15.23;nan;101431.28;4860506;29;20481;-92
2022/03/11 01:36:01;;;;;;;21.17;3.27;;;;;;;15.29;nan;101435.97;4850152;29;20461;-92
2022/03/11 01:38:38;;;;;;;11.53;2.20;;;;;;;15.17;nan;101406.28;4880178;29;20914;-94
2022/03/11 01:41:06;;;;;;;16.37;3.20;;;;;;;15.20;nan;101425.13;4862347;29;20449;-93
2022/03/11 01:44:03;;;;;;;16.47;2.93;;;;;;;15.25;nan;101445.69;4868773;29;20434;-92
2022/03/11 01:46:36;;;;;;;14.80;3.07;;;;;;;15.24;nan;101446.75;4898871;29;20461;-93
2022/03/11 01:49:07;;;;;;;18.47;3.17;;;;;;;15.21;nan;101440.59;4868149;29;20492;-93
2022/03/11 01:52:01;;;;;;;15.17;2.40;;;;;;;15.22;nan;101452.44;4868457;29;20449;-94
2022/03/11 01:54:29;;;;;;;23.87;3.30;;;;;;;15.09;nan;101431.25;4898360;29;20486;-92
2022/03/11 01:57:12;;;;;;;18.40;2.87;;;;;;;15.21;nan;101445.25;4884860;29;20446;-94
2022/03/11 01:59:40;;;;;;;17.90;2.70;;;;;;;15.22;nan;101427.66;4878947;29;20507;-92
2022/03/11 02:02:08;;;;;;;16.40;2.60;;;;;;;15.12;nan;101400.53;4880031;29;20458;-92
2022/03/11 02:04:41;;;;;;;14.13;2.60;;;;;;;15.09;nan;101400.97;4854063;29;20450;-92
2022/03/11 02:07:10;;;;;;;20.33;3.57;;;;;;;15.11;nan;101398.00;4865085;29;20799;-92
2022/03/11 02:09:41;;;;;;;15.93;3.70;;;;;;;15.19;nan;101419.84;4881366;29;20453;-92
2022/03/11 02:12:10;;;;;;;19.80;3.57;;;;;;;15.17;nan;101410.94;4882825;29;20510;-93
2022/03/11 02:14:39;;;;;;;14.57;2.70;;;;;;;15.15;nan;101416.66;4897892;29;20954;-94
2022/03/11 02:17:09;;;;;;;13.53;2.40;;;;;;;15.21;nan;101412.19;4898104;29;20458;-92
2022/03/11 02:19:37;;;;;;;25.63;2.93;;;;;;;15.15;nan;101391.03;4882628;29;20486;-91
2022/03/11 02:22:06;;;;;;;23.80;3.80;;;;;;;15.16;nan;101388.06;4866718;29;20457;-92
2022/03/11 02:24:53;;;;;;;19.63;2.70;;;;;;;15.13;nan;101379.38;4867186;29;20504;-92
2022/03/11 02:31:08;;;;;;;11.13;2.33;;;;;;;15.14;nan;101370.91;4885099;29;20521;-91
2022/03/11 02:33:36;;;;;;;11.40;3.07;;;;;;;15.15;nan;101367.09;4883227;29;20870;-93
2022/03/11 02:36:05;;;;;;;9.23;1.87;;;;;;;15.15;nan;101372.59;4882537;29;20454;-94
2022/03/11 02:38:36;;;;;;;16.33;2.87;;;;;;;15.14;nan;101365.41;4898146;29;20457;-93
2022/03/11 02:41:06;;;;;;;14.43;2.63;;;;;;;15.13;nan;101360.94;4888566;29;20476;-95
2022/03/11 02:43:50;;;;;;;16.80;2.87;;;;;;;15.14;nan;101359.03;4867324;29;20464;-93
2022/03/11 02:46:25;;;;;;;17.37;2.80;;;;;;;15.10;nan;101344.84;4883557;29;20459;-94
2022/03/11 02:48:54;;;;;;;11.97;2.70;;;;;;;15.08;nan;101335.94;4879183;29;20488;-92
2022/03/11 02:51:32;;;;;;;13.63;2.80;;;;;;;15.13;nan;101341.66;4894414;29;20510;-92
2022/03/11 02:54:05;;;;;;;20.33;3.00;;;;;;;15.07;nan;101328.72;4894780;29;20450;-95
2022/03/11 02:56:35;;;;;;;20.07;3.03;;;;;;;15.11;nan;101331.91;4879219;29;20447;-94
2022/03/11 02:59:10;;;;;;;17.60;3.27;;;;;;;15.11;nan;101324.50;4894410;29;20962;-95
2022/03/11 03:01:43;;;;;;;21.27;3.40;;;;;;;15.15;nan;101325.78;4879034;29;20462;-92
2022/03/11 03:04:22;;;;;;;17.30;2.93;;;;;;;15.12;nan;101315.19;4898018;29;20461;-94
2022/03/11 03:06:58;;;;;;;21.70;3.57;;;;;;;15.12;nan;101312.44;4882740;29;20453;-94
2022/03/11 03:09:32;;;;;;;16.00;3.57;;;;;;;15.15;nan;101325.78;4882301;29;20492;-94
2022/03/11 03:12:03;;;;;;;15.87;3.13;;;;;;;15.11;nan;101312.66;4877542;29;20513;-93
2022/03/11 03:14:35;;;;;;;25.50;3.30;;;;;;;15.16;nan;101321.13;4864635;29;20454;-90
2022/03/11 03:17:04;;;;;;;25.43;3.97;;;;;;;15.15;nan;101314.78;4875030;29;20457;-95
2022/03/11 03:19:44;;;;;;;20.40;3.13;;;;;;;15.13;nan;101314.13;4867395;29;20454;-93
2022/03/11 03:22:12;;;;;;;16.53;3.60;;;;;;;15.16;nan;101315.63;4898182;29;20433;-94
2022/03/11 03:25:14;;;;;;;25.83;4.20;;;;;;;15.19;nan;101327.06;4865355;29;20848;-93
2022/03/11 03:27:42;;;;;;;17.80;3.23;;;;;;;15.15;nan;101320.28;4894095;29;20486;-93
2022/03/11 03:30:34;;;;;;;43.40;6.40;;;;;;;15.20;nan;101309.47;4912748;29;20960;-94
2022/03/11 03:33:03;;;;;;;21.80;4.40;;;;;;;15.21;nan;101315.81;4878816;29;20866;-93
2022/03/11 03:35:41;;;;;;;29.73;4.00;;;;;;;15.20;nan;101312.22;4869729;29;20453;-94
2022/03/11 03:38:08;;;;;;;17.87;3.60;;;;;;;15.12;nan;101292.31;4885913;29;20449;-93
2022/03/11 03:40:47;;;;;;;20.97;2.97;;;;;;;15.18;nan;101308.84;4866416;29;20450;-93
2022/03/11 03:43:15;;;;;;;14.53;2.80;;;;;;;15.10;nan;101291.69;4882512;29;20521;-92
2022/03/11 03:45:49;;;;;;;16.03;3.50;;;;;;;15.19;nan;101305.03;4866518;29;20463;-94
2022/03/11 03:48:19;;;;;;;22.23;3.77;;;;;;;15.11;nan;101293.38;4866975;29;20482;-95
2022/03/11 03:50:49;;;;;;;21.20;4.00;;;;;;;15.16;nan;101310.97;4862345;29;20458;-92
2022/03/11 03:53:17;;;;;;;24.67;3.80;;;;;;;15.15;nan;101309.28;4885183;29;20457;-92
2022/03/11 03:55:44;;;;;;;17.03;3.40;;;;;;;15.12;nan;101292.31;4866182;29;20454;-93
2022/03/11 03:58:12;;;;;;;30.30;3.60;;;;;;;15.10;nan;101288.91;4851365;29;20441;-94
2022/03/11 04:00:48;;;;;;;26.73;3.50;;;;;;;15.14;nan;101295.72;4851517;29;20453;-92
2022/03/11 04:03:17;;;;;;;22.20;3.87;;;;;;;15.11;nan;101285.97;4899177;29;20457;-92
2022/03/11 04:05:52;;;;;;;20.33;3.70;;;;;;;15.14;nan;101290.19;4885435;29;20967;-93
2022/03/11 04:08:30;;;;;;;28.27;4.03;;;;;;;15.14;nan;101285.53;4885201;29;20480;-92
2022/03/11 04:10:59;;;;;;;28.67;3.30;;;;;;;15.11;nan;101272.19;4885405;29;20445;-93
2022/03/11 04:13:36;;;;;;;29.07;4.70;;;;;;;15.17;nan;101279.63;4869715;29;20553;-94
2022/03/11 04:16:06;;;;;;;22.30;3.50;;;;;;;15.15;nan;101287.25;4900649;29;20453;-92
2022/03/11 04:18:34;;;;;;;26.43;3.17;;;;;;;15.11;nan;101274.94;4867443;29;20446;-92
2022/03/11 04:21:09;;;;;;;32.67;4.30;;;;;;;15.15;nan;101284.50;4881798;29;20447;-96
2022/03/11 04:23:44;;;;;;;19.43;4.17;;;;;;;15.17;nan;101284.28;4881940;29;20450;-93
2022/03/11 04:26:12;;;;;;;23.23;3.10;;;;;;;15.17;nan;101284.28;4880543;29;20464;-93
2022/03/11 04:28:41;;;;;;;21.17;3.47;;;;;;;15.20;nan;101283.88;4881033;29;20481;-95
2022/03/11 04:31:14;;;;;;;25.60;4.27;;;;;;;15.17;nan;101268.59;4912579;29;20455;-93
2022/03/11 04:33:49;;;;;;;20.70;3.73;;;;;;;15.17;nan;101263.09;4881239;29;20933;-92
2022/03/11 04:36:19;;;;;;;21.07;3.67;;;;;;;15.22;nan;101262.44;4883825;29;20452;-92
2022/03/11 04:38:53;;;;;;;23.03;3.47;;;;;;;15.19;nan;101247.22;4899944;29;20445;-96
2022/03/11 04:41:23;;;;;;;24.50;3.67;;;;;;;15.20;nan;101243.38;4832009;29;20981;-94
2022/03/11 04:43:58;;;;;;;19.87;3.43;;;;;;;15.17;nan;101241.06;4831721;29;20446;-94
2022/03/11 04:46:26;;;;;;;25.43;4.10;;;;;;;15.22;nan;101251.44;4831216;29;20828;-94
2022/03/11 04:48:55;;;;;;;31.27;3.97;;;;;;;15.18;nan;101251.03;4846318;29;21070;-95
2022/03/11 04:51:32;;;;;;;22.23;3.77;;;;;;;15.27;nan;101261.81;4816685;29;20463;-93
2022/03/11 04:54:06;;;;;;;29.87;4.30;;;;;;;15.25;nan;101255.66;4845866;29;20463;-94
2022/03/11 04:56:34;;;;;;;30.37;3.40;;;;;;;15.24;nan;101253.97;4846432;29;20490;-94
2022/03/11 04:59:09;;;;;;;25.93;3.07;;;;;;;15.25;nan;101252.91;4845707;29;20469;-95
2022/03/11 05:01:38;;;;;;;19.27;4.40;;;;;;;15.27;nan;101257.16;4877979;29;20453;-93
2022/03/11 05:04:06;;;;;;;16.53;2.80;;;;;;;15.25;nan;101241.91;4868828;29;20454;-93
2022/03/11 05:06:41;;;;;;;33.13;4.13;;;;;;;15.23;nan;101238.50;4869092;29;20452;-93
2022/03/11 05:09:11;;;;;;;23.37;4.87;;;;;;;15.24;nan;101229.19;4869135;29;20491;-95
2022/03/11 05:11:47;;;;;;;11.97;3.30;;;;;;;15.18;nan;101225.41;4868651;29;20457;-92
2022/03/11 05:14:21;;;;;;;35.17;4.43;;;;;;;15.26;nan;101238.94;4870267;29;20469;-93
2022/03/11 05:16:50;;;;;;;20.77;3.20;;;;;;;15.24;nan;101234.69;4874857;29;20964;-92
2022/03/11 05:19:21;;;;;;;30.90;4.50;;;;;;;15.28;nan;101250.59;4868365;29;20449;-93
2022/03/11 05:21:51;;;;;;;24.23;3.27;;;;;;;15.18;nan;101234.50;4884020;29;20470;-93
2022/03/11 05:24:25;;;;;;;18.97;3.10;;;;;;;15.20;nan;101235.13;4884100;29;20470;-92
2022/03/11 05:26:58;;;;;;;31.47;3.70;;;;;;;15.25;nan;101233.63;4882800;29;20481;-95
2022/03/11 05:29:32;;;;;;;24.20;4.20;;;;;;;15.29;nan;101232.16;4868270;29;20493;-94
2022/03/11 05:32:02;;;;;;;26.50;4.43;;;;;;;15.24;nan;101229.19;4883755;29;20866;-93
2022/03/11 05:34:34;;;;;;;16.47;4.00;;;;;;;15.31;nan;101246.56;4877604;29;20534;-93
2022/03/11 05:37:09;;;;;;;18.87;4.53;;;;;;;15.21;nan;101236.81;4883382;29;20457;-93
2022/03/11 05:39:42;;;;;;;29.73;4.83;;;;;;;15.26;nan;101246.34;4883910;29;20449;-92
2022/03/11 05:42:23;;;;;;;27.67;4.20;;;;;;;15.29;nan;101259.69;4883844;29;20513;-92
2022/03/11 05:44:53;;;;;;;26.10;4.93;;;;;;;15.28;nan;101252.50;4873280;29;20453;-95
2022/03/11 05:47:26;;;;;;;20.60;4.03;;;;;;;15.28;nan;101258.84;4879529;29;20458;-94
2022/03/11 05:50:00;;;;;;;26.53;4.80;;;;;;;15.21;nan;101241.47;4867486;29;20537;-93
2022/03/11 05:52:28;;;;;;;20.80;4.10;;;;;;;15.19;nan;101244.47;4898956;29;20445;-93
2022/03/11 05:54:59;;;;;;;32.10;4.43;;;;;;;15.32;nan;101264.78;4864736;29;20451;-93
2022/03/11 05:57:35;;;;;;;23.83;4.03;;;;;;;15.32;nan;101264.78;4879938;29;20457;-93
2022/03/11 06:00:09;;;;;;;15.13;3.73;;;;;;;15.21;nan;101247.81;4864837;29;20450;-93
2022/03/11 06:02:44;;;;;;;23.83;4.23;;;;;;;15.21;nan;101247.81;4880196;29;20435;-93
2022/03/11 06:05:24;;;;;;;14.20;3.90;;;;;;;15.25;nan;101253.75;4864985;29;20446;-92
2022/03/11 06:07:55;;;;;;;24.77;4.07;;;;;;;15.30;nan;101262.25;4889168;29;20448;-92
2022/03/11 06:10:31;;;;;;;18.77;3.10;;;;;;;15.30;nan;101255.88;4810463;29;20476;-93
2022/03/11 06:13:14;;;;;;;19.37;3.13;;;;;;;15.33;nan;101272.00;4779834;29;20455;-93
2022/03/11 06:15:50;;;;;;;33.13;4.33;;;;;;;15.33;nan;101266.47;4809284;29;20464;-93
2022/03/11 06:18:24;;;;;;;24.43;2.87;;;;;;;15.30;nan;101262.25;4790873;29;20514;-94
2022/03/11 06:20:52;;;;;;;18.17;3.30;;;;;;;15.34;nan;101270.94;4776320;29;20454;-95
2022/03/11 06:23:22;;;;;;;30.73;4.50;;;;;;;15.23;nan;101266.03;4776193;29;20470;-95
2022/03/11 06:25:52;;;;;;;21.00;3.17;;;;;;;15.30;nan;101284.28;4790672;29;20475;-92
2022/03/11 06:28:26;;;;;;;17.20;2.63;;;;;;;15.29;nan;101287.25;4797479;29;20486;-94
2022/03/11 06:30:59;;;;;;;18.30;3.30;;;;;;;15.20;nan;101273.66;4815922;29;20470;-93
2022/03/11 06:33:33;;;;;;;24.43;3.67;;;;;;;15.23;nan;101269.66;4830037;29;20455;-95
2022/03/11 06:36:05;;;;;;;26.00;3.23;;;;;;;15.23;nan;101277.06;4830561;29;20440;-95
2022/03/11 06:38:39;;;;;;;24.97;3.90;;;;;;;15.24;nan;101271.34;4831157;29;20982;-93
2022/03/11 06:41:14;;;;;;;19.17;3.50;;;;;;;15.34;nan;101284.69;4844852;29;20466;-93
2022/03/11 06:43:56;;;;;;;20.80;3.20;;;;;;;15.35;nan;101286.41;4860865;29;20457;-95
2022/03/11 06:46:25;;;;;;;18.90;3.83;;;;;;;15.30;nan;101289.78;4867697;29;20457;-94
2022/03/11 06:48:56;;;;;;;10.67;1.80;;;;;;;15.23;nan;101297.19;4863803;29;20473;-94
2022/03/11 06:51:24;;;;;;;9.70;2.03;;;;;;;15.15;nan;101292.75;4864233;29;20840;-93
2022/03/11 06:53:54;;;;;;;6.73;1.67;;;;;;;15.04;nan;101296.09;4879599;29;20462;-94
2022/03/11 06:56:26;;;;;;;4.50;1.20;;;;;;;14.94;nan;101297.59;4864232;29;20945;-94
2022/03/11 06:58:58;;;;;;;3.20;1.37;;;;;;;14.73;nan;101301.34;4879208;29;20443;-94
2022/03/11 07:01:38;;;;;;;4.47;1.73;;;;;;;14.60;nan;101309.56;4870497;29;20442;-93
2022/03/11 07:04:07;;;;;;;6.30;2.20;;;;;;;14.57;nan;101309.97;4882160;29;20457;-92
2022/03/11 07:06:39;;;;;;;3.70;1.00;;;;;;;14.59;nan;101316.97;4868346;29;20458;-92
2022/03/11 07:09:09;;;;;;;2.03;0.60;;;;;;;14.55;nan;101318.44;4868064;29;20477;-93
2022/03/11 07:11:38;;;;;;;2.23;0.83;;;;;;;14.55;nan;101317.59;4885992;29;20495;-92
2022/03/11 07:14:11;;;;;;;1.97;0.70;;;;;;;14.52;nan;101319.69;4870796;29;20458;-92
2022/03/11 07:16:41;;;;;;;4.27;1.83;;;;;;;14.54;nan;101337.88;4886206;29;20825;-94
2022/03/11 07:19:13;;;;;;;9.20;3.57;;;;;;;14.48;nan;101337.66;4886256;29;20936;-91
2022/03/11 07:21:42;;;;;;;5.10;2.40;;;;;;;14.46;nan;101339.75;4870947;29;20445;-91
2022/03/11 07:24:09;;;;;;;3.17;1.30;;;;;;;14.44;nan;101344.59;4889701;29;20458;-95
2022/03/11 07:26:37;;;;;;;8.33;2.40;;;;;;;14.34;nan;101343.25;4866796;29;20462;-92
2022/03/11 07:29:07;;;;;;;2.00;0.80;;;;;;;14.38;nan;101352.81;4851846;29;20494;-95
2022/03/11 07:31:35;;;;;;;7.73;2.33;;;;;;;14.41;nan;101361.53;4851837;29;20497;-92
2022/03/11 07:34:10;;;;;;;9.80;1.50;;;;;;;14.40;nan;101379.09;4873553;29;20465;-92
2022/03/11 07:36:39;;;;;;;5.73;1.60;;;;;;;14.34;nan;101368.88;4883662;29;20459;-92
2022/03/11 07:39:24;;;;;;;6.60;1.47;;;;;;;14.32;nan;101362.72;4883046;29;20447;-92
2022/03/11 07:41:52;;;;;;;5.87;1.47;;;;;;;14.26;nan;101352.53;4914288;29;20450;-86
2022/03/11 07:44:21;;;;;;;4.70;1.30;;;;;;;14.30;nan;101361.22;4900722;29;20456;-88
2022/03/11 07:47:04;;;;;;;5.03;1.40;;;;;;;14.28;nan;101363.31;4885117;29;20439;-91
2022/03/11 07:49:32;;;;;;;5.40;1.33;;;;;;;14.34;nan;101352.38;4899245;29;20477;-90
2022/03/11 07:52:00;;;;;;;4.30;1.07;;;;;;;14.30;nan;101348.31;4913002;29;20457;-90
2022/03/11 07:54:29;;;;;;;5.30;1.27;;;;;;;14.34;nan;101366.13;4883784;29;20461;-91
2022/03/11 07:57:09;;;;;;;2.47;0.90;;;;;;;14.32;nan;101359.13;4895646;29;20472;-91
2022/03/11 07:59:41;;;;;;;2.27;0.70;;;;;;;14.30;nan;101363.97;4899331;29;20445;-90
2022/03/11 08:02:11;;;;;;;2.77;0.87;;;;;;;14.25;nan;101380.22;4899399;29;20961;-91
2022/03/11 08:04:39;;;;;;;7.90;1.50;;;;;;;14.17;nan;101386.75;4899327;29;20453;-91
2022/03/11 08:07:12;;;;;;;8.07;1.77;;;;;;;14.15;nan;101384.19;4884615;29;20469;-91
2022/03/11 08:09:42;;;;;;;13.37;1.73;;;;;;;14.09;nan;101384.13;4884225;29;20496;-91
2022/03/11 08:12:13;;;;;;;7.53;1.17;;;;;;;14.10;nan;101396.84;4869315;29;20456;-91
2022/03/11 08:14:43;;;;;;;11.83;1.80;;;;;;;14.05;nan;101391.09;4899674;29;20450;-90
2022/03/11 08:17:12;;;;;;;6.23;1.33;;;;;;;14.04;nan;101394.91;4900903;29;20465;-91
2022/03/11 08:19:40;;;;;;;4.97;1.73;;;;;;;14.07;nan;101403.59;4829483;29;20462;-91
2022/03/11 08:22:08;;;;;;;12.30;1.77;;;;;;;14.11;nan;101398.53;4850439;29;20483;-91
2022/03/11 08:24:36;;;;;;;10.50;1.47;;;;;;;14.15;nan;101397.94;4816449;29;20991;-90
2022/03/11 08:27:04;;;;;;;4.30;1.47;;;;;;;14.20;nan;101407.50;4844831;29;20894;-90
2022/03/11 08:29:34;;;;;;;6.93;2.03;;;;;;;14.21;nan;101418.28;4812400;29;21027;-91
2022/03/11 08:32:03;;;;;;;7.43;1.30;;;;;;;14.23;nan;101424.44;4858691;29;20835;-90
2022/03/11 08:34:31;;;;;;;7.10;1.60;;;;;;;14.26;nan;101435.00;4859549;29;20448;-90
2022/03/11 08:37:20;;;;;;;10.70;2.00;;;;;;;14.20;nan;101430.34;4870777;29;20437;-89
2022/03/11 08:39:48;;;;;;;5.07;1.37;;;;;;;14.17;nan;101441.72;4896194;29;20457;-88
2022/03/11 08:42:16;;;;;;;12.17;1.73;;;;;;;14.14;nan;101442.97;4888737;29;20462;-87
2022/03/11 08:44:44;;;;;;;5.43;1.80;;;;;;;14.12;nan;101441.47;4898412;29;20821;-88
2022/03/11 08:47:12;;;;;;;15.73;3.63;;;;;;;14.20;nan;101455.06;4883830;29;20445;-88
2022/03/11 08:49:40;;;;;;;8.90;2.13;;;;;;;14.25;nan;101466.31;4883675;29;20485;-89
2022/03/11 08:52:08;;;;;;;10.93;1.60;;;;;;;14.34;nan;101467.88;4894550;29;20464;-87
2022/03/11 08:54:36;;;;;;;9.63;1.50;;;;;;;14.43;nan;101461.16;4894921;29;20453;-86
2022/03/11 08:57:07;;;;;;;12.13;2.10;;;;;;;14.52;nan;101468.22;4884721;29;20454;-87
2022/03/11 08:59:35;;;;;;;15.30;2.27;;;;;;;14.64;nan;101464.91;4899200;29;20854;-87
2022/03/11 09:02:07;;;;;;;13.13;2.33;;;;;;;14.72;nan;101467.50;4882372;29;20822;-87
2022/03/11 09:04:36;;;;;;;12.00;2.93;;;;;;;14.76;nan;101460.53;4879943;29;20454;-89
2022/03/11 09:07:05;;;;;;;12.33;2.17;;;;;;;14.74;nan;101451.63;4897689;29;20819;-89
2022/03/11 09:09:34;;;;;;;16.07;2.07;;;;;;;14.72;nan;101450.97;4897453;29;20489;-90
2022/03/11 09:12:03;;;;;;;14.63;2.90;;;;;;;14.76;nan;101471.53;4876381;29;20453;-89
2022/03/11 09:14:32;;;;;;;9.43;1.90;;;;;;;14.79;nan;101458.22;4882998;29;20501;-91
2022/03/11 09:17:00;;;;;;;13.23;2.00;;;;;;;14.80;nan;101459.94;4882791;29;20468;-91
2022/03/11 09:19:30;;;;;;;8.50;2.10;;;;;;;14.79;nan;101462.88;4882882;29;20458;-92
2022/03/11 09:22:01;;;;;;;7.00;2.10;;;;;;;14.88;nan;101471.81;4881529;29;20453;-91
2022/03/11 09:24:31;;;;;;;15.67;2.87;;;;;;;14.80;nan;101470.94;4896630;29;20461;-92
2022/03/11 09:27:11;;;;;;;10.97;2.10;;;;;;;14.80;nan;101492.97;4879197;29;20852;-90
2022/03/11 09:29:41;;;;;;;8.90;2.40;;;;;;;14.76;nan;101501.81;4865846;29;20863;-90
2022/03/11 09:32:10;;;;;;;10.90;2.70;;;;;;;14.69;nan;101488.00;4882285;29;20484;-91
2022/03/11 09:34:43;;;;;;;16.67;2.50;;;;;;;14.78;nan;101492.31;4881359;29;20465;-90
2022/03/11 09:37:15;;;;;;;8.67;2.30;;;;;;;14.82;nan;101484.47;4897992;29;20456;-90
2022/03/11 09:39:43;;;;;;;9.10;2.60;;;;;;;14.87;nan;101490.22;4882792;29;20460;-91
2022/03/11 09:42:12;;;;;;;15.77;3.30;;;;;;;14.88;nan;101500.19;4882789;29;20458;-91
2022/03/11 09:44:41;;;;;;;8.73;2.30;;;;;;;14.90;nan;101503.59;4867630;29;20452;-90
2022/03/11 09:47:11;;;;;;;13.93;2.37;;;;;;;14.96;nan;101505.53;4882990;29;20464;-89
2022/03/11 09:49:40;;;;;;;11.23;2.03;;;;;;;14.98;nan;101508.94;4882776;29;20481;-90
2022/03/11 09:52:09;;;;;;;14.83;2.80;;;;;;;14.97;nan;101490.72;4897755;29;20532;-91
2022/03/11 09:54:39;;;;;;;9.10;2.00;;;;;;;14.95;nan;101465.28;4882949;29;20449;-90
2022/03/11 09:57:11;;;;;;;13.80;2.60;;;;;;;14.97;nan;101449.41;4882668;29;20457;-90
2022/03/11 09:59:39;;;;;;;10.13;2.13;;;;;;;14.95;nan;101437.75;4898200;29;20454;-90
2022/03/11 10:02:23;;;;;;;11.37;2.47;;;;;;;14.96;nan;101461.47;4884528;29;20461;-90
2022/03/11 10:04:57;;;;;;;10.17;2.23;;;;;;;15.01;nan;101453.44;4883033;29;20454;-90
2022/03/11 10:08:06;;;;;;;15.30;3.63;;;;;;;15.10;nan;101476.16;4885740;29;20544;-90
2022/03/11 10:10:35;;;;;;;15.63;5.40;;;;;;;15.14;nan;101491.22;4897324;29;20500;-91
2022/03/11 10:13:08;;;;;;;20.73;5.60;;;;;;;15.14;nan;101510.47;4883182;29;21018;-91
2022/03/11 10:15:37;;;;;;;15.07;4.37;;;;;;;15.16;nan;101520.25;4882143;29;20465;-90
2022/03/11 10:18:09;;;;;;;16.23;4.30;;;;;;;15.13;nan;101515.13;4867220;29;20452;-91
2022/03/11 10:20:37;;;;;;;17.73;4.23;;;;;;;15.12;nan;101516.19;4882329;29;20873;-91
2022/03/11 10:23:13;;;;;;;14.63;3.93;;;;;;;15.14;nan;101502.22;4881891;29;20469;-90
2022/03/11 10:25:42;;;;;;;12.50;3.33;;;;;;;15.16;nan;101508.38;4882477;29;20457;-90
2022/03/11 10:28:12;;;;;;;17.00;2.63;;;;;;;15.21;nan;101509.44;4796424;29;20485;-90
2022/03/11 10:30:41;;;;;;;14.50;2.67;;;;;;;15.21;nan;101505.84;4811425;29;20487;-91
2022/03/11 10:33:12;;;;;;;18.70;3.60;;;;;;;15.20;nan;101502.22;4811205;29;20456;-90
2022/03/11 10:35:49;;;;;;;16.30;3.70;;;;;;;15.17;nan;101499.06;4825996;29;20863;-90
2022/03/11 10:38:22;;;;;;;24.63;3.50;;;;;;;15.15;nan;101510.28;4826263;29;20456;-90
2022/03/11 10:40:54;;;;;;;14.27;3.10;;;;;;;15.13;nan;101504.13;4826321;29;20453;-90
2022/03/11 10:43:26;;;;;;;20.37;3.70;;;;;;;15.14;nan;101511.34;4810960;29;20457;-90
2022/03/11 10:45:56;;;;;;;29.77;5.27;;;;;;;15.11;nan;101514.50;4831873;29;20454;-90
2022/03/11 10:48:44;;;;;;;15.97;4.13;;;;;;;15.07;nan;101510.44;4882216;29;20442;-91
2022/03/11 10:51:30;;;;;;;18.03;2.80;;;;;;;15.08;nan;101525.91;4882382;29;21014;-91
2022/03/11 10:54:01;;;;;;;7.50;2.10;;;;;;;15.10;nan;101520.19;4897393;29;20454;-90
2022/03/11 10:56:35;;;;;;;18.33;2.80;;;;;;;15.10;nan;101504.53;4881737;29;20532;-90
2022/03/11 10:59:06;;;;;;;12.37;2.83;;;;;;;15.19;nan;101508.81;4897298;29;20453;-90
2022/03/11 11:01:35;;;;;;;17.13;4.03;;;;;;;15.24;nan;101510.09;4866724;29;20457;-91
2022/03/11 11:04:11;;;;;;;16.53;4.47;;;;;;;15.28;nan;101503.97;4882279;29;20453;-91
2022/03/11 11:06:39;;;;;;;11.73;3.40;;;;;;;15.34;nan;101500.41;4897115;29;20450;-91
2022/03/11 11:09:08;;;;;;;21.40;4.37;;;;;;;15.46;nan;101503.38;4881563;29;20454;-91
2022/03/11 11:11:38;;;;;;;16.80;3.00;;;;;;;15.58;nan;101492.66;4897314;29;20480;-90
2022/03/11 11:14:10;;;;;;;13.83;3.00;;;;;;;15.73;nan;101477.63;4882461;29;20453;-91
2022/03/11 11:16:43;;;;;;;22.40;4.20;;;;;;;15.89;nan;101482.72;4881879;29;20468;-90
2022/03/11 11:19:18;;;;;;;18.57;3.10;;;;;;;16.12;nan;101492.50;4897434;29;20457;-91
2022/03/11 11:21:50;;;;;;;17.57;4.37;;;;;;;16.31;nan;101482.53;4882064;29;20449;-91
2022/03/11 11:24:21;;;;;;;15.17;3.30;;;;;;;16.51;nan;101484.19;4882062;29;20458;-91
2022/03/11 11:26:53;;;;;;;15.63;3.03;;;;;;;16.65;nan;101487.81;4881564;29;20814;-92
2022/03/11 11:29:24;;;;;;;10.27;2.80;;;;;;;16.75;nan;101482.69;4897600;29;20461;-92
2022/03/11 11:31:54;;;;;;;15.67;2.83;;;;;;;16.80;nan;101491.16;4882039;29;20490;-91
2022/03/11 11:34:37;;;;;;;12.10;2.07;;;;;;;16.86;nan;101481.19;4882262;29;20454;-91
2022/03/11 11:37:06;;;;;;;12.33;2.90;;;;;;;16.91;nan;101482.22;4878178;29;20469;-91
2022/03/11 11:39:47;;;;;;;9.27;2.30;;;;;;;17.00;nan;101480.06;4863245;29;20642;-91
2022/03/11 11:42:17;;;;;;;17.10;2.83;;;;;;;17.05;nan;101485.78;4864148;29;20459;-91
2022/03/11 11:44:45;;;;;;;14.30;2.63;;;;;;;17.13;nan;101474.47;4863710;29;20442;-91
2022/03/11 11:47:27;;;;;;;8.73;2.70;;;;;;;17.26;nan;101473.56;4847994;29;20466;-92
2022/03/11 11:49:56;;;;;;;12.20;2.43;;;;;;;17.39;nan;101476.25;4849340;29;20551;-91
2022/03/11 11:52:35;;;;;;;17.50;2.37;;;;;;;17.43;nan;101477.53;4863603;29;20446;-92
2022/03/11 11:55:25;;;;;;;16.60;2.67;;;;;;;17.35;nan;101479.69;4868052;29;20482;-92
2022/03/11 11:57:55;;;;;;;11.50;2.77;;;;;;;17.23;nan;101488.69;4867107;29;20804;-92
2022/03/11 12:00:27;;;;;;;8.40;2.20;;;;;;;17.17;nan;101496.97;4866293;29;20450;-91